createdAt,value
2022-12-23T00:01:34.052Z,22.67
2022-12-23T00:04:01.183Z,26.67
2022-12-23T00:06:28.515Z,29.50
2022-12-23T00:08:58.716Z,22.47
2022-12-23T00:11:26.808Z,27.97
2022-12-23T00:14:19.962Z,27.57
2022-12-23T00:16:47.524Z,18.07
2022-12-23T00:19:14.839Z,26.40
2022-12-23T00:21:41.958Z,24.57
2022-12-23T00:24:09.143Z,20.63
2022-12-23T00:26:36.216Z,25.37
2022-12-23T00:29:03.305Z,21.13
2022-12-23T00:31:32.507Z,23.90
2022-12-23T00:33:59.630Z,28.60
2022-12-23T00:36:30.907Z,27.00
2022-12-23T00:39:17.706Z,28.67
2022-12-23T00:42:03.599Z,26.63
2022-12-23T00:44:30.821Z,23.60
2022-12-23T00:46:57.854Z,22.97
2022-12-23T00:49:44.503Z,29.67
2022-12-23T00:52:13.039Z,26.30
2022-12-23T00:54:40.567Z,37.90
2022-12-23T00:57:07.692Z,29.00
2022-12-23T00:59:34.956Z,25.67
2022-12-23T01:02:20.868Z,31.57
2022-12-23T01:05:07.728Z,25.33
2022-12-23T01:07:34.861Z,19.53
2022-12-23T01:10:02.097Z,29.30
2022-12-23T01:12:29.333Z,24.80
2022-12-23T01:14:56.445Z,31.83
2022-12-23T01:17:23.766Z,28.90
2022-12-23T01:19:51.604Z,36.93
2022-12-23T01:22:18.917Z,30.67
2022-12-23T01:24:46.020Z,30.30
2022-12-23T01:27:13.095Z,30.53
2022-12-23T01:29:40.818Z,28.73
2022-12-23T01:32:08.172Z,27.57
2022-12-23T01:34:37.575Z,27.50
2022-12-23T01:37:05.087Z,27.60
2022-12-23T01:39:32.161Z,29.53
2022-12-23T01:42:18.082Z,22.57
2022-12-23T01:44:54.447Z,22.23
2022-12-23T01:47:28.191Z,25.23
2022-12-23T01:49:58.023Z,36.67
2022-12-23T01:52:25.361Z,36.00
2022-12-23T01:54:52.633Z,33.07
2022-12-23T01:57:19.845Z,25.13
2022-12-23T02:00:05.547Z,19.60
2022-12-23T02:02:54.394Z,22.13
2022-12-23T02:05:22.420Z,29.83
2022-12-23T02:08:08.135Z,28.57
2022-12-23T02:10:45.268Z,21.47
2022-12-23T02:13:16.849Z,23.20
2022-12-23T02:16:06.074Z,22.17
2022-12-23T02:18:41.949Z,23.80
2022-12-23T02:21:11.914Z,21.00
2022-12-23T02:23:57.802Z,23.07
2022-12-23T02:26:31.267Z,19.73
2022-12-23T02:28:58.337Z,20.63
2022-12-23T02:31:51.572Z,20.90
2022-12-23T02:34:21.469Z,19.67
2022-12-23T02:37:00.073Z,19.07
2022-12-23T02:39:51.251Z,18.60
2022-12-23T02:42:20.867Z,20.77
2022-12-23T02:44:51.103Z,20.30
2022-12-23T02:47:23.412Z,14.97
2022-12-23T02:49:56.461Z,18.43
2022-12-23T02:52:26.309Z,20.80
2022-12-23T02:54:57.192Z,23.17
2022-12-23T02:57:27.745Z,23.23
2022-12-23T02:59:56.855Z,15.10
2022-12-23T03:02:24.017Z,22.43
2022-12-23T03:04:51.213Z,21.63
2022-12-23T03:07:23.558Z,16.67
2022-12-23T03:09:53.610Z,13.00
2022-12-23T03:12:20.649Z,14.63
2022-12-23T03:14:47.841Z,13.83
2022-12-23T03:17:44.216Z,11.67
2022-12-23T03:20:11.492Z,14.40
2022-12-23T03:22:50.601Z,12.37
2022-12-23T03:25:40.777Z,15.00
2022-12-23T03:28:10.925Z,11.23
2022-12-23T03:30:39.602Z,11.03
2022-12-23T03:33:16.014Z,13.10
2022-12-23T03:35:48.009Z,15.23
2022-12-23T03:38:17.125Z,14.03
2022-12-23T03:40:46.814Z,17.83
2022-12-23T03:43:26.351Z,12.50
2022-12-23T03:45:58.933Z,12.40
2022-12-23T03:48:41.431Z,13.07
2022-12-23T03:51:15.264Z,18.87
2022-12-23T03:53:52.354Z,19.37
2022-12-23T03:56:25.138Z,18.23
2022-12-23T03:58:59.977Z,19.80
2022-12-23T04:01:33.029Z,20.37
2022-12-23T04:04:16.854Z,20.50
2022-12-23T04:06:57.324Z,22.20
2022-12-23T04:09:25.536Z,23.63
2022-12-23T04:11:52.872Z,22.70
2022-12-23T04:14:21.025Z,21.53
2022-12-23T04:16:51.151Z,22.93
2022-12-23T04:19:18.179Z,21.43
2022-12-23T04:21:45.256Z,22.67
2022-12-23T04:24:12.489Z,17.50
2022-12-23T04:26:39.537Z,20.53
2022-12-23T04:29:06.645Z,19.70
2022-12-23T04:31:33.865Z,25.97
2022-12-23T04:34:00.983Z,19.17
2022-12-23T04:36:28.084Z,19.20
2022-12-23T04:38:55.153Z,23.97
2022-12-23T04:41:22.670Z,18.17
2022-12-23T04:43:53.014Z,16.47
2022-12-23T04:46:20.673Z,17.03
2022-12-23T04:48:48.013Z,14.43
2022-12-23T04:51:15.136Z,18.27
2022-12-23T04:53:42.196Z,17.70
2022-12-23T04:56:11.916Z,15.97
2022-12-23T04:58:39.071Z,19.20
2022-12-23T05:01:08.252Z,20.33
2022-12-23T05:03:35.941Z,15.20
2022-12-23T05:06:03.660Z,18.67
2022-12-23T05:08:30.947Z,19.93
2022-12-23T05:10:58.219Z,18.20
2022-12-23T05:13:25.635Z,23.67
2022-12-23T05:15:53.525Z,18.90
2022-12-23T05:18:21.160Z,17.93
2022-12-23T05:20:48.214Z,24.37
2022-12-23T05:23:15.392Z,20.37
2022-12-23T05:25:42.502Z,25.70
2022-12-23T05:28:09.592Z,24.30
2022-12-23T05:30:36.868Z,20.93
2022-12-23T05:33:04.055Z,23.67
2022-12-23T05:35:31.122Z,22.17
2022-12-23T05:37:58.229Z,23.43
2022-12-23T05:40:27.072Z,26.97
2022-12-23T05:42:57.372Z,23.33
2022-12-23T05:45:24.905Z,21.47
2022-12-23T05:47:51.984Z,21.00
2022-12-23T05:50:19.185Z,21.60
2022-12-23T05:52:46.461Z,20.93
2022-12-23T05:55:13.575Z,21.23
2022-12-23T05:57:40.690Z,21.43
2022-12-23T06:00:08.481Z,21.23
2022-12-23T06:02:35.757Z,22.33
2022-12-23T06:05:02.986Z,23.70
2022-12-23T06:07:30.045Z,20.40
2022-12-23T06:09:57.069Z,22.63
2022-12-23T06:12:24.176Z,21.20
2022-12-23T06:14:51.216Z,21.93
2022-12-23T06:17:18.284Z,25.30
2022-12-23T06:19:45.346Z,19.57
2022-12-23T06:22:12.476Z,22.97
2022-12-23T06:24:39.896Z,21.97
2022-12-23T06:27:07.118Z,21.87
2022-12-23T06:29:34.212Z,20.20
2022-12-23T06:32:01.375Z,20.63
2022-12-23T06:34:28.647Z,25.03
2022-12-23T06:36:55.716Z,22.37
2022-12-23T06:39:22.932Z,27.73
2022-12-23T06:41:50.062Z,24.13
2022-12-23T06:44:17.336Z,25.37
2022-12-23T06:46:44.485Z,19.03
2022-12-23T06:49:13.745Z,27.53
2022-12-23T06:51:41.386Z,23.13
2022-12-23T06:54:10.823Z,23.70
2022-12-23T06:56:37.992Z,20.00
2022-12-23T06:59:05.251Z,22.07
2022-12-23T07:01:32.884Z,21.33
2022-12-23T07:04:00.158Z,21.97
2022-12-23T07:06:27.187Z,22.43
2022-12-23T07:08:54.914Z,23.27
2022-12-23T07:11:23.314Z,23.00
2022-12-23T07:13:51.200Z,19.70
2022-12-23T07:16:18.518Z,21.93
2022-12-23T07:18:45.956Z,23.23
2022-12-23T07:21:19.988Z,22.00
2022-12-23T07:23:52.037Z,21.80
2022-12-23T07:26:19.067Z,23.07
2022-12-23T07:28:48.253Z,18.37
2022-12-23T07:31:15.954Z,20.57
2022-12-23T07:33:43.182Z,19.60
2022-12-23T07:36:10.449Z,25.07
2022-12-23T07:38:37.571Z,21.53
2022-12-23T07:41:04.751Z,19.60
2022-12-23T07:43:31.843Z,24.00
2022-12-23T07:46:00.567Z,20.40
2022-12-23T07:48:28.001Z,21.70
2022-12-23T07:51:00.365Z,22.47
2022-12-23T07:53:27.440Z,24.00
2022-12-23T07:55:56.598Z,31.27
2022-12-23T07:58:24.165Z,26.07
2022-12-23T08:00:51.288Z,23.37
2022-12-23T08:03:18.495Z,24.67
2022-12-23T08:05:45.717Z,29.40
2022-12-23T08:08:12.834Z,24.63
2022-12-23T08:10:46.178Z,23.73
2022-12-23T08:13:15.497Z,28.80
2022-12-23T08:15:42.543Z,25.50
2022-12-23T08:18:09.626Z,20.77
2022-12-23T08:20:36.693Z,27.17
2022-12-23T08:23:03.806Z,23.60
2022-12-23T08:25:30.916Z,20.73
2022-12-23T08:27:57.973Z,28.30
2022-12-23T08:30:25.169Z,24.90
2022-12-23T08:32:52.241Z,21.90
2022-12-23T08:35:19.304Z,25.27
2022-12-23T08:37:46.552Z,23.97
2022-12-23T08:40:13.648Z,24.40
2022-12-23T08:42:40.695Z,21.17
2022-12-23T08:45:08.035Z,27.93
2022-12-23T08:47:36.247Z,25.13
2022-12-23T08:50:03.533Z,24.30
